createdAt,value
2022-11-09T00:00:05.969Z,21.20
2022-11-09T00:02:32.700Z,21.20
2022-11-09T00:04:59.182Z,21.20
2022-11-09T00:07:25.565Z,21.21
2022-11-09T00:09:52.020Z,21.20
2022-11-09T00:12:18.398Z,21.20
2022-11-09T00:14:44.754Z,21.19
2022-11-09T00:17:11.166Z,21.21
2022-11-09T00:19:37.535Z,21.21
2022-11-09T00:22:04.039Z,21.23
2022-11-09T00:24:30.561Z,21.24
2022-11-09T00:26:56.958Z,21.24
2022-11-09T00:29:23.470Z,21.24
2022-11-09T00:31:50.454Z,21.25
2022-11-09T00:34:17.096Z,21.25
2022-11-09T00:36:43.649Z,21.26
2022-11-09T00:39:10.021Z,21.27
2022-11-09T00:41:36.366Z,21.27
2022-11-09T00:44:02.967Z,21.27
2022-11-09T00:46:29.823Z,21.26
2022-11-09T00:48:56.508Z,21.26
2022-11-09T00:51:22.883Z,21.26
2022-11-09T00:53:53.877Z,21.26
2022-11-09T00:56:21.384Z,21.25
2022-11-09T00:58:47.729Z,21.26
2022-11-09T01:01:17.833Z,21.25
2022-11-09T01:03:45.330Z,21.25
2022-11-09T01:06:22.967Z,21.23
2022-11-09T01:08:49.738Z,21.26
2022-11-09T01:11:18.193Z,21.25
2022-11-09T01:13:45.651Z,21.25
2022-11-09T01:16:15.357Z,21.24
2022-11-09T01:18:42.238Z,21.23
2022-11-09T01:21:11.518Z,21.21
2022-11-09T01:23:40.390Z,21.20
2022-11-09T01:26:09.234Z,21.19
2022-11-09T01:28:36.027Z,21.18
2022-11-09T01:31:05.120Z,21.17
2022-11-09T01:33:32.242Z,21.18
2022-11-09T01:36:03.709Z,21.16
2022-11-09T01:38:30.180Z,21.17
2022-11-09T01:40:56.782Z,21.17
2022-11-09T01:43:25.067Z,21.15
2022-11-09T01:46:14.126Z,21.13
2022-11-09T01:49:03.555Z,21.10
2022-11-09T01:51:36.183Z,21.12
2022-11-09T01:54:10.676Z,21.12
2022-11-09T01:56:38.094Z,21.12
2022-11-09T01:59:11.355Z,21.10
2022-11-09T02:01:37.972Z,21.08
2022-11-09T02:04:22.879Z,21.03
2022-11-09T02:06:50.446Z,21.05
2022-11-09T02:09:26.686Z,21.01
2022-11-09T02:11:53.078Z,21.04
2022-11-09T02:14:22.732Z,21.00
2022-11-09T02:16:49.877Z,21.00
2022-11-09T02:19:16.418Z,20.98
2022-11-09T02:21:42.872Z,20.97
2022-11-09T02:24:09.450Z,20.96
2022-11-09T02:26:47.722Z,20.91
2022-11-09T02:29:18.651Z,20.93
2022-11-09T02:31:57.323Z,20.92
2022-11-09T02:34:25.267Z,20.91
2022-11-09T02:36:52.042Z,20.91
2022-11-09T02:39:21.253Z,20.88
2022-11-09T02:42:15.766Z,20.87
2022-11-09T02:44:51.798Z,20.86
2022-11-09T02:47:18.118Z,20.84
2022-11-09T02:49:44.448Z,20.83
2022-11-09T02:52:10.931Z,20.81
2022-11-09T02:54:37.529Z,20.78
2022-11-09T02:57:03.999Z,20.76
2022-11-09T02:59:30.412Z,20.74
2022-11-09T03:01:56.731Z,20.71
2022-11-09T03:04:23.084Z,20.69
2022-11-09T03:06:49.539Z,20.68
2022-11-09T03:09:16.783Z,20.64
2022-11-09T03:11:43.706Z,20.61
2022-11-09T03:14:10.500Z,20.59
2022-11-09T03:16:38.482Z,20.58
2022-11-09T03:19:06.039Z,20.55
2022-11-09T03:21:32.597Z,20.54
2022-11-09T03:23:59.083Z,20.51
2022-11-09T03:26:26.832Z,20.49
2022-11-09T03:28:53.192Z,20.47
2022-11-09T03:31:19.648Z,20.46
2022-11-09T03:33:46.039Z,20.43
2022-11-09T03:36:12.678Z,20.41
2022-11-09T03:38:39.317Z,20.40
2022-11-09T03:41:05.722Z,20.38
2022-11-09T03:43:32.076Z,20.38
2022-11-09T03:45:58.505Z,20.36
2022-11-09T03:48:25.018Z,20.35
2022-11-09T03:50:51.792Z,20.35
2022-11-09T03:53:18.516Z,20.34
2022-11-09T03:55:45.809Z,20.35
2022-11-09T03:58:15.538Z,20.33
2022-11-09T04:00:42.013Z,20.36
2022-11-09T04:03:08.429Z,20.37
2022-11-09T04:05:34.761Z,20.36
2022-11-09T04:08:01.773Z,20.37
2022-11-09T04:10:28.192Z,20.38
2022-11-09T04:12:54.637Z,20.39
2022-11-09T04:15:21.460Z,20.39
2022-11-09T04:17:55.330Z,20.37
2022-11-09T04:20:21.699Z,20.40
2022-11-09T04:22:54.951Z,20.39
2022-11-09T04:25:21.343Z,20.41
2022-11-09T04:27:47.740Z,20.40
2022-11-09T04:30:14.238Z,20.41
2022-11-09T04:32:40.727Z,20.42
2022-11-09T04:35:07.654Z,20.44
2022-11-09T04:37:34.001Z,20.45
2022-11-09T04:40:00.397Z,20.45
2022-11-09T04:42:26.762Z,20.49
2022-11-09T04:44:53.139Z,20.51
2022-11-09T04:47:19.484Z,20.53
2022-11-09T04:49:46.345Z,20.54
2022-11-09T04:52:12.863Z,20.59
2022-11-09T04:54:39.202Z,20.60
2022-11-09T04:57:05.520Z,20.62
2022-11-09T04:59:32.036Z,20.62
2022-11-09T05:01:58.387Z,20.63
2022-11-09T05:04:24.942Z,20.64
2022-11-09T05:06:51.500Z,20.63
2022-11-09T05:09:17.856Z,20.64
2022-11-09T05:11:44.162Z,20.62
2022-11-09T05:14:10.781Z,20.62
2022-11-09T05:16:37.343Z,20.60
2022-11-09T05:19:03.730Z,20.61
2022-11-09T05:21:31.432Z,20.58
2022-11-09T05:24:00.926Z,20.60
2022-11-09T05:26:30.321Z,20.57
2022-11-09T05:28:59.161Z,20.59
2022-11-09T05:31:27.122Z,20.60
2022-11-09T05:33:54.711Z,20.60
2022-11-09T05:36:21.853Z,20.62
2022-11-09T05:38:48.915Z,20.61
2022-11-09T05:41:16.113Z,20.63
2022-11-09T05:43:48.356Z,20.59
2022-11-09T05:46:16.334Z,20.61
2022-11-09T05:48:43.710Z,20.62
2022-11-09T05:51:13.605Z,20.63
2022-11-09T05:53:45.196Z,20.62
2022-11-09T05:56:13.900Z,20.61
2022-11-09T05:58:42.144Z,20.60
2022-11-09T06:01:11.577Z,20.59
2022-11-09T06:03:39.079Z,20.57
2022-11-09T06:06:08.914Z,20.54
2022-11-09T06:08:35.835Z,20.52
2022-11-09T06:11:05.993Z,20.48
2022-11-09T06:13:32.862Z,20.44
2022-11-09T06:16:01.021Z,20.39
2022-11-09T06:18:29.767Z,20.35
2022-11-09T06:20:58.584Z,20.31
2022-11-09T06:23:25.743Z,20.26
2022-11-09T06:26:13.222Z,20.20
2022-11-09T06:28:41.048Z,20.19
2022-11-09T06:31:13.344Z,20.14
2022-11-09T06:33:39.961Z,20.11
2022-11-09T06:36:06.818Z,20.07
2022-11-09T06:41:02.695Z,19.96
2022-11-09T06:43:29.426Z,19.92
2022-11-09T06:45:56.026Z,19.87
2022-11-09T06:48:22.901Z,19.82
2022-11-09T06:50:49.434Z,19.77
2022-11-09T06:53:17.661Z,19.72
2022-11-09T06:55:50.217Z,19.68
2022-11-09T06:58:17.833Z,19.66
2022-11-09T07:00:45.217Z,19.62
2022-11-09T07:03:16.390Z,19.57
2022-11-09T07:05:43.198Z,19.59
2022-11-09T07:08:10.128Z,19.58
2022-11-09T07:10:37.280Z,19.56
2022-11-09T07:13:04.681Z,19.56
2022-11-09T07:15:31.660Z,19.54
2022-11-09T07:18:02.650Z,19.51
2022-11-09T07:20:30.616Z,19.52
2022-11-09T07:22:57.035Z,19.52
2022-11-09T07:25:25.118Z,19.53
2022-11-09T07:27:51.899Z,19.55
2022-11-09T07:30:18.754Z,19.55
2022-11-09T07:35:32.717Z,19.61
2022-11-09T07:38:00.591Z,19.61
2022-11-09T07:40:27.095Z,19.64
2022-11-09T07:42:53.404Z,19.65
2022-11-09T07:45:19.697Z,19.66
2022-11-09T07:47:45.995Z,19.66
2022-11-09T07:50:12.532Z,19.66
2022-11-09T07:52:38.918Z,19.68
2022-11-09T07:55:06.069Z,19.70
2022-11-09T07:57:32.738Z,19.71
2022-11-09T07:59:59.205Z,19.72
2022-11-09T08:02:25.838Z,19.75
2022-11-09T08:04:55.289Z,19.75
2022-11-09T08:07:23.717Z,19.74
2022-11-09T08:09:50.063Z,19.72
2022-11-09T08:12:16.426Z,19.71
2022-11-09T08:14:45.864Z,19.68
2022-11-09T08:17:12.442Z,19.66
2022-11-09T08:19:39.105Z,19.65
2022-11-09T08:22:06.784Z,19.65
2022-11-09T08:24:34.658Z,19.64
2022-11-09T08:27:00.966Z,19.65
2022-11-09T08:29:27.251Z,19.66
2022-11-09T08:31:53.630Z,19.66
2022-11-09T08:34:20.042Z,19.65
2022-11-09T08:36:46.445Z,19.66
2022-11-09T08:39:13.010Z,19.69
2022-11-09T08:41:39.508Z,19.71
2022-11-09T08:44:06.079Z,19.74
2022-11-09T08:46:35.806Z,19.76
2022-11-09T08:49:06.685Z,19.80
2022-11-09T08:51:33.208Z,19.83
2022-11-09T08:53:59.638Z,19.84
2022-11-09T08:56:26.064Z,19.86
2022-11-09T08:58:52.633Z,19.90
2022-11-09T09:01:19.254Z,19.93
2022-11-09T09:03:46.845Z,19.96
2022-11-09T09:06:15.555Z,20.00
2022-11-09T09:08:42.091Z,20.06
2022-11-09T09:11:09.118Z,20.10
2022-11-09T09:13:39.124Z,20.13
2022-11-09T09:16:14.411Z,20.17
2022-11-09T09:18:41.016Z,20.21
2022-11-09T09:21:10.474Z,20.26
2022-11-09T09:23:39.306Z,20.31
2022-11-09T09:26:06.301Z,20.36
2022-11-09T09:28:32.927Z,20.42
2022-11-09T09:31:00.774Z,20.48
2022-11-09T09:33:28.168Z,20.56
2022-11-09T09:35:58.805Z,20.62
2022-11-09T09:38:26.662Z,20.70
2022-11-09T09:41:01.755Z,20.75
2022-11-09T09:43:42.555Z,20.83
2022-11-09T09:46:33.401Z,20.90
2022-11-09T09:49:29.642Z,20.95
2022-11-09T09:52:18.091Z,21.03
2022-11-09T09:54:53.139Z,21.12
2022-11-09T09:57:22.678Z,21.19
2022-11-09T09:59:54.940Z,21.24
2022-11-09T10:02:29.758Z,21.29
2022-11-09T10:05:01.943Z,21.34
2022-11-09T10:07:34.911Z,21.40
2022-11-09T10:10:26.763Z,21.39
2022-11-09T10:13:14.806Z,21.42
2022-11-09T10:15:50.275Z,21.45
2022-11-09T10:18:26.034Z,21.45
2022-11-09T10:21:11.352Z,21.48
2022-11-09T10:23:54.310Z,21.50
2022-11-09T10:26:28.173Z,21.56
2022-11-09T10:29:15.487Z,21.66
2022-11-09T10:31:45.661Z,21.75
2022-11-09T10:34:23.483Z,21.78
2022-11-09T10:37:15.251Z,21.86
2022-11-09T10:39:51.915Z,21.92
2022-11-09T10:42:18.346Z,21.98
2022-11-09T10:44:44.688Z,21.99
2022-11-09T10:47:16.806Z,21.99
2022-11-09T10:49:43.441Z,22.04
2022-11-09T10:52:44.302Z,22.05
2022-11-09T10:55:32.630Z,22.11
2022-11-09T10:58:03.625Z,22.17
2022-11-09T11:00:30.308Z,22.20
2022-11-09T11:02:57.318Z,22.20
2022-11-09T11:05:26.520Z,22.21
2022-11-09T11:07:52.992Z,22.22
2022-11-09T11:10:20.990Z,22.21
2022-11-09T11:12:59.764Z,22.18
2022-11-09T11:15:38.477Z,22.19
2022-11-09T11:18:13.065Z,22.20
2022-11-09T11:20:39.554Z,22.17
2022-11-09T11:23:11.172Z,22.13
2022-11-09T11:25:58.064Z,22.10
2022-11-09T11:28:33.803Z,22.08
2022-11-09T11:31:00.438Z,22.09
2022-11-09T11:33:26.949Z,22.07
2022-11-09T11:36:04.999Z,22.07
2022-11-09T11:39:12.838Z,22.10
2022-11-09T11:41:39.432Z,22.14
2022-11-09T11:44:41.909Z,22.12
2022-11-09T11:47:41.466Z,22.14
2022-11-09T11:50:32.867Z,22.14
2022-11-09T11:52:59.624Z,22.14
2022-11-09T11:55:31.818Z,22.06
2022-11-09T11:58:13.511Z,21.96
2022-11-09T12:00:49.524Z,21.93
2022-11-09T12:03:39.115Z,21.85
2022-11-09T12:06:23.543Z,21.80
2022-11-09T12:09:18.330Z,21.73
2022-11-09T12:12:01.163Z,21.68
2022-11-09T12:14:56.613Z,21.63
2022-11-09T12:17:46.185Z,21.60
2022-11-09T12:20:25.239Z,21.56
2022-11-09T12:23:15.394Z,21.52
2022-11-09T12:26:22.877Z,21.51
2022-11-09T12:29:05.632Z,21.52
2022-11-09T12:31:59.957Z,21.51
2022-11-09T12:34:38.871Z,21.58
2022-11-09T12:37:13.283Z,21.59
2022-11-09T12:39:53.486Z,21.66
2022-11-09T12:42:37.419Z,21.67
2022-11-09T12:45:24.734Z,21.73
2022-11-09T12:47:54.658Z,21.82
2022-11-09T12:50:25.399Z,21.85
2022-11-09T12:52:52.777Z,21.89
2022-11-09T12:55:27.189Z,21.88
2022-11-09T12:58:00.536Z,21.91
2022-11-09T13:00:33.815Z,21.89
2022-11-09T13:03:15.248Z,21.90
2022-11-09T13:05:43.216Z,21.93
2022-11-09T13:08:19.033Z,21.90
2022-11-09T13:10:45.538Z,21.92
2022-11-09T13:13:12.109Z,21.90
2022-11-09T13:15:39.997Z,21.88
2022-11-09T13:18:46.052Z,21.83
2022-11-09T13:21:25.234Z,21.84
2022-11-09T13:24:01.266Z,21.83
2022-11-09T13:26:31.749Z,21.82
2022-11-09T13:29:23.111Z,21.77
2022-11-09T13:32:11.015Z,21.74
2022-11-09T13:34:54.503Z,21.75
2022-11-09T13:37:42.450Z,21.73
2022-11-09T13:40:35.877Z,21.71
2022-11-09T13:43:05.745Z,21.75
2022-11-09T13:45:44.155Z,21.73
2022-11-09T13:48:29.305Z,21.68
2022-11-09T13:50:58.978Z,21.69
2022-11-09T13:53:37.603Z,21.63
2022-11-09T13:56:27.843Z,21.61
2022-11-09T13:58:59.261Z,21.64
2022-11-09T14:01:38.303Z,21.61
2022-11-09T14:04:07.036Z,21.62
2022-11-09T14:06:33.546Z,21.60
2022-11-09T14:09:01.323Z,21.57
2022-11-09T14:12:04.086Z,21.53
2022-11-09T14:14:36.136Z,21.55
2022-11-09T14:17:22.131Z,21.50
2022-11-09T14:19:54.441Z,21.50
2022-11-09T14:22:20.947Z,21.48
2022-11-09T14:24:47.398Z,21.45
2022-11-09T14:27:22.349Z,21.41
2022-11-09T14:29:57.103Z,21.38
2022-11-09T14:32:31.749Z,21.37
2022-11-09T14:35:22.377Z,21.33
2022-11-09T14:37:50.560Z,21.36
2022-11-09T14:40:30.887Z,21.34
2022-11-09T14:43:05.291Z,21.30
2022-11-09T14:45:31.684Z,21.29
2022-11-09T14:48:00.191Z,21.24
2022-11-09T14:50:32.188Z,21.21
2022-11-09T14:53:00.294Z,21.19
2022-11-09T14:55:27.289Z,21.17
2022-11-09T14:57:55.764Z,21.14
2022-11-09T15:00:29.179Z,21.12
2022-11-09T15:02:56.817Z,21.12
2022-11-09T15:05:39.880Z,21.07
2022-11-09T15:08:20.214Z,21.07
2022-11-09T15:10:52.231Z,21.07
2022-11-09T15:13:27.795Z,21.07
2022-11-09T15:15:55.141Z,21.05
2022-11-09T15:18:33.450Z,21.02
2022-11-09T15:21:25.463Z,20.97
2022-11-09T15:24:10.046Z,20.94
2022-11-09T15:26:44.296Z,20.90
2022-11-09T15:29:37.198Z,20.85
2022-11-09T15:32:16.577Z,20.81
2022-11-09T15:34:56.350Z,20.78
2022-11-09T15:37:25.203Z,20.74
2022-11-09T15:39:51.861Z,20.70
2022-11-09T15:42:18.599Z,20.64
2022-11-09T15:44:45.022Z,20.56
2022-11-09T15:47:34.232Z,20.46
2022-11-09T15:50:07.860Z,20.39
2022-11-09T15:52:35.616Z,20.29
2022-11-09T15:55:02.016Z,20.21
2022-11-09T15:57:28.666Z,20.13
2022-11-09T15:59:55.266Z,20.06
2022-11-09T16:02:21.639Z,19.99
2022-11-09T16:04:48.033Z,19.93
2022-11-09T16:07:17.023Z,19.87
2022-11-09T16:09:43.835Z,19.84
2022-11-09T16:12:10.290Z,19.79
2022-11-09T16:14:38.306Z,19.74
2022-11-09T16:17:05.484Z,19.69
2022-11-09T16:19:31.978Z,19.67
2022-11-09T16:21:59.025Z,19.64
2022-11-09T16:24:25.659Z,19.63
2022-11-09T16:26:54.030Z,19.64
2022-11-09T16:29:23.630Z,19.65
2022-11-09T16:31:52.403Z,19.64
2022-11-09T16:34:19.837Z,19.64
2022-11-09T16:36:52.338Z,19.63
2022-11-09T16:39:22.105Z,19.61
2022-11-09T16:41:50.075Z,19.60
2022-11-09T16:44:20.757Z,19.57
2022-11-09T16:46:48.162Z,19.53
2022-11-09T16:49:14.835Z,19.50
2022-11-09T16:51:41.224Z,19.46
2022-11-09T16:54:07.801Z,19.42
2022-11-09T16:56:35.267Z,19.39
2022-11-09T16:59:01.848Z,19.37
2022-11-09T17:01:28.374Z,19.33
2022-11-09T17:03:56.276Z,19.30
2022-11-09T17:06:22.854Z,19.27
2022-11-09T17:08:49.462Z,19.24
2022-11-09T17:11:16.199Z,19.20
2022-11-09T17:13:42.919Z,19.18
2022-11-09T17:16:12.168Z,19.14
2022-11-09T17:18:39.397Z,19.13
2022-11-09T17:21:10.596Z,19.07
2022-11-09T17:23:37.981Z,19.08
2022-11-09T17:26:06.569Z,19.03
2022-11-09T17:28:33.772Z,19.02
2022-11-09T17:31:06.714Z,19.03
2022-11-09T17:33:33.089Z,19.00
2022-11-09T17:36:01.344Z,18.95
2022-11-09T17:38:29.444Z,18.91
2022-11-09T17:41:04.292Z,18.88
2022-11-09T17:43:32.651Z,18.87
2022-11-09T17:46:07.071Z,18.83
2022-11-09T17:48:35.581Z,18.83
2022-11-09T17:51:02.964Z,18.82
2022-11-09T17:53:30.092Z,18.81
2022-11-09T17:55:56.643Z,18.82
2022-11-09T17:58:23.701Z,18.82
2022-11-09T18:00:51.618Z,18.81
2022-11-09T18:03:18.217Z,18.81
2022-11-09T18:05:45.574Z,18.79
2022-11-09T18:08:14.920Z,18.78
2022-11-09T18:10:43.897Z,18.77
2022-11-09T18:13:10.551Z,18.76
2022-11-09T18:15:37.744Z,18.74
2022-11-09T18:18:05.312Z,18.75
2022-11-09T18:20:32.290Z,18.74
2022-11-09T18:22:58.736Z,18.75
2022-11-09T18:25:26.707Z,18.74
2022-11-09T18:27:53.034Z,18.74
2022-11-09T18:30:19.822Z,18.73
2022-11-09T18:32:46.633Z,18.73
2022-11-09T18:35:12.972Z,18.73
2022-11-09T18:37:39.728Z,18.72
2022-11-09T18:40:07.395Z,18.71
2022-11-09T18:42:33.920Z,18.72
2022-11-09T18:45:01.082Z,18.70
2022-11-09T18:47:30.738Z,18.70
2022-11-09T18:49:57.070Z,18.69
2022-11-09T18:52:23.432Z,18.68
2022-11-09T18:54:49.848Z,18.67
2022-11-09T18:57:19.781Z,18.66
2022-11-09T18:59:46.607Z,18.66
2022-11-09T19:02:13.951Z,18.65
2022-11-09T19:04:40.370Z,18.65
2022-11-09T19:07:06.820Z,18.63
2022-11-09T19:09:38.806Z,18.63
2022-11-09T19:12:08.734Z,18.61
2022-11-09T19:14:43.951Z,18.61
2022-11-09T19:17:15.114Z,18.61
2022-11-09T19:19:42.202Z,18.61
2022-11-09T19:22:15.250Z,18.59
2022-11-09T19:24:41.897Z,18.61
2022-11-09T19:27:08.984Z,18.61
2022-11-09T19:29:35.405Z,18.60
2022-11-09T19:32:02.048Z,18.59
2022-11-09T19:34:28.392Z,18.59
2022-11-09T19:36:54.909Z,18.58
2022-11-09T19:39:21.312Z,18.57
2022-11-09T19:41:48.541Z,18.58
2022-11-09T19:44:17.790Z,18.56
2022-11-09T19:46:44.343Z,18.55
2022-11-09T19:49:11.198Z,18.53
2022-11-09T19:51:38.677Z,18.52
2022-11-09T19:54:05.986Z,18.53
2022-11-09T19:56:33.341Z,18.54
2022-11-09T19:59:01.684Z,18.55
2022-11-09T20:01:29.062Z,18.58
2022-11-09T20:04:00.015Z,18.61
2022-11-09T20:06:27.680Z,18.62
2022-11-09T20:08:54.634Z,18.66
2022-11-09T20:11:43.281Z,18.66
2022-11-09T20:14:10.918Z,18.67
2022-11-09T20:16:38.358Z,18.67
2022-11-09T20:19:09.314Z,18.65
2022-11-09T20:21:36.596Z,18.64
2022-11-09T20:24:03.487Z,18.62
2022-11-09T20:26:29.854Z,18.59
2022-11-09T20:28:56.660Z,18.56
2022-11-09T20:31:23.490Z,18.53
2022-11-09T20:33:50.898Z,18.48
2022-11-09T20:36:18.991Z,18.46
2022-11-09T20:38:46.453Z,18.43
2022-11-09T20:41:13.194Z,18.37
2022-11-09T20:43:40.397Z,18.35
2022-11-09T20:46:09.813Z,18.29
2022-11-09T20:48:53.508Z,18.26
2022-11-09T20:51:21.526Z,18.23
2022-11-09T20:53:52.544Z,18.20
2022-11-09T20:56:20.289Z,18.17
2022-11-09T20:58:47.148Z,18.16
2022-11-09T21:01:27.305Z,18.10
2022-11-09T21:03:54.264Z,18.10
2022-11-09T21:06:23.794Z,18.08
2022-11-09T21:08:52.744Z,18.04
2022-11-09T21:11:20.206Z,18.01
2022-11-09T21:13:53.615Z,17.97
2022-11-09T21:16:21.448Z,17.97
2022-11-09T21:18:48.512Z,17.95
2022-11-09T21:21:20.088Z,17.90
2022-11-09T21:24:05.316Z,17.90
2022-11-09T21:26:50.884Z,17.86
2022-11-09T21:29:38.156Z,17.83
2022-11-09T21:32:05.815Z,17.81
2022-11-09T21:34:36.458Z,17.78
2022-11-09T21:37:03.846Z,17.78
2022-11-09T21:39:30.248Z,17.75
2022-11-09T21:41:57.498Z,17.71
2022-11-09T21:44:24.817Z,17.71
2022-11-09T21:46:51.364Z,17.71
2022-11-09T21:49:17.902Z,17.69
2022-11-09T21:51:46.692Z,17.69
2022-11-09T21:54:13.115Z,17.70
2022-11-09T21:56:39.701Z,17.70
2022-11-09T21:59:06.116Z,17.70
2022-11-09T22:01:32.794Z,17.70
2022-11-09T22:03:59.746Z,17.71
2022-11-09T22:06:26.871Z,17.70
2022-11-09T22:08:53.836Z,17.71
2022-11-09T22:11:46.031Z,17.67
2022-11-09T22:14:36.982Z,17.68
2022-11-09T22:17:05.412Z,17.69
2022-11-09T22:19:50.791Z,17.68
2022-11-09T22:22:17.184Z,17.66
2022-11-09T22:24:43.755Z,17.63
2022-11-09T22:27:10.133Z,17.61
2022-11-09T22:29:36.764Z,17.59
2022-11-09T22:32:03.521Z,17.55
2022-11-09T22:34:29.874Z,17.54
2022-11-09T22:36:56.435Z,17.52
2022-11-09T22:39:23.011Z,17.49
2022-11-09T22:41:49.642Z,17.48
2022-11-09T22:44:16.298Z,17.46
2022-11-09T22:46:42.839Z,17.46
2022-11-09T22:49:10.145Z,17.46
2022-11-09T22:51:36.539Z,17.43
2022-11-09T22:54:03.154Z,17.42
2022-11-09T22:56:29.511Z,17.43
2022-11-09T22:58:56.117Z,17.41
2022-11-09T23:01:25.052Z,17.39
2022-11-09T23:03:52.160Z,17.38
2022-11-09T23:06:21.112Z,17.37
2022-11-09T23:08:48.867Z,17.37
2022-11-09T23:11:19.100Z,17.36
2022-11-09T23:13:49.789Z,17.36
2022-11-09T23:16:16.397Z,17.35
2022-11-09T23:18:55.628Z,17.34
2022-11-09T23:21:29.610Z,17.32
2022-11-09T23:23:59.532Z,17.31
2022-11-09T23:26:27.533Z,17.31
2022-11-09T23:28:54.822Z,17.29
2022-11-09T23:31:25.952Z,17.28
2022-11-09T23:33:54.546Z,17.27
2022-11-09T23:36:21.895Z,17.26
2022-11-09T23:38:48.281Z,17.27
2022-11-09T23:41:15.597Z,17.24
2022-11-09T23:43:47.644Z,17.21
2022-11-09T23:46:15.769Z,17.20
2022-11-09T23:48:42.649Z,17.18
2022-11-09T23:51:09.537Z,17.15
2022-11-09T23:53:36.379Z,17.14
2022-11-09T23:56:06.944Z,17.10
2022-11-09T23:58:34.091Z,17.11
